DLH22B LEPA-EDDF
Flight info
| Callsign | DLH22B |
|---|---|
| Flight time | 1h 42m |
| Altitude | 32000 |
| Route | MEROS DCT LAPIT DCT CHELY DCT LUMAS DCT MAXIR DCT LUSOL DCT BODRU DCT OKTET DCT IRMAR/N0449F340 DCT KINES DCT VANAS DCT MOBLO DCT UBIMA DCT SOSAL DCT KORED DCT BERSU N871 DITON/N0448F330 DCT LADOL/N0449F340 T163 EMPAX EMPAX5B |
| Aircraft | A320/M-SDE3FGHIRWY/LB1 |
Departure
| Time | 2026-05-06 18:03 |
|---|---|
| Airport | Palma de Mallorca Airport (LEPA) |
Arrival
| Time | 2026-05-06 19:45 |
|---|---|
| Airport | Frankfurt Main Airport (EDDF) |
| Time | Latitude | Longitude | Altitude | Speed | Heading |
|---|---|---|---|---|---|
| 2026-05-06 17:41 | 39.54510 | 2.73219 | 36 ft | 0 kts | 347° |
| 2026-05-06 17:54 | 39.54501 | 2.73222 | 36 ft | 2 kts | 345° |
| 2026-05-06 17:54 | 39.54488 | 2.73227 | 36 ft | 2 kts | 343° |
| 2026-05-06 17:54 | 39.54476 | 2.73232 | 35 ft | 2 kts | 335° |
| 2026-05-06 17:54 | 39.54469 | 2.73237 | 34 ft | 1 kts | 313° |
| 2026-05-06 17:55 | 39.54465 | 2.73243 | 33 ft | 1 kts | 278° |
| 2026-05-06 17:55 | 39.54465 | 2.73251 | 34 ft | 1 kts | 252° |
| 2026-05-06 17:55 | 39.54467 | 2.73258 | 34 ft | 1 kts | 242° |
| 2026-05-06 17:55 | 39.54469 | 2.73264 | 35 ft | 1 kts | 238° |
| 2026-05-06 17:56 | 39.54473 | 2.73271 | 35 ft | 1 kts | 237° |
| 2026-05-06 17:56 | 39.54475 | 2.73275 | 36 ft | 0 kts | 236° |
| 2026-05-06 17:59 | 39.54470 | 2.73265 | 35 ft | 2 kts | 236° |
| 2026-05-06 17:59 | 39.54456 | 2.73240 | 34 ft | 5 kts | 232° |
| 2026-05-06 17:59 | 39.54430 | 2.73209 | 36 ft | 5 kts | 205° |
| 2026-05-06 17:59 | 39.54392 | 2.73215 | 36 ft | 4 kts | 157° |
| 2026-05-06 18:00 | 39.54365 | 2.73213 | 36 ft | 5 kts | 212° |
| 2026-05-06 18:00 | 39.54328 | 2.73152 | 36 ft | 12 kts | 234° |
| 2026-05-06 18:00 | 39.54280 | 2.73042 | 35 ft | 16 kts | 238° |
| 2026-05-06 18:00 | 39.54219 | 2.73014 | 36 ft | 6 kts | 143° |
| 2026-05-06 18:01 | 39.54216 | 2.73018 | 35 ft | 0 kts | 135° |
| 2026-05-06 18:01 | 39.54215 | 2.73020 | 35 ft | 0 kts | 134° |
| 2026-05-06 18:01 | 39.54213 | 2.73023 | 36 ft | 3 kts | 132° |
| 2026-05-06 18:01 | 39.54183 | 2.73090 | 36 ft | 16 kts | 112° |
| 2026-05-06 18:02 | 39.54190 | 2.73310 | 34 ft | 19 kts | 65° |
| 2026-05-06 18:02 | 39.54279 | 2.73499 | 35 ft | 43 kts | 58° |
| 2026-05-06 18:02 | 39.54437 | 2.73831 | 34 ft | 84 kts | 58° |
| 2026-05-06 18:02 | 39.54840 | 2.74676 | 33 ft | 139 kts | 58° |
| 2026-05-06 18:03 | 39.55430 | 2.75926 | 178 ft | 179 kts | 58° |
| 2026-05-06 18:03 | 39.56079 | 2.77375 | 756 ft | 193 kts | 58° |
| 2026-05-06 18:03 | 39.56814 | 2.78900 | 1349 ft | 206 kts | 58° |
| 2026-05-06 18:03 | 39.57635 | 2.80472 | 1815 ft | 215 kts | 55° |
| 2026-05-06 18:04 | 39.58527 | 2.82157 | 2226 ft | 241 kts | 61° |
| 2026-05-06 18:04 | 39.59365 | 2.84161 | 2764 ft | 260 kts | 62° |
| 2026-05-06 18:04 | 39.60272 | 2.86178 | 3800 ft | 258 kts | 59° |
| 2026-05-06 18:04 | 39.61249 | 2.88174 | 4601 ft | 265 kts | 58° |
| 2026-05-06 18:05 | 39.62229 | 2.90226 | 5420 ft | 269 kts | 61° |
| 2026-05-06 18:05 | 39.63089 | 2.92370 | 6186 ft | 274 kts | 62° |
| 2026-05-06 18:05 | 39.64043 | 2.94538 | 6916 ft | 278 kts | 59° |
| 2026-05-06 18:05 | 39.65017 | 2.96726 | 7653 ft | 282 kts | 60° |
| 2026-05-06 18:06 | 39.65965 | 2.98970 | 8359 ft | 286 kts | 61° |
| 2026-05-06 18:06 | 39.66922 | 3.01252 | 9040 ft | 290 kts | 60° |
| 2026-05-06 18:06 | 39.67905 | 3.03558 | 9718 ft | 294 kts | 60° |
| 2026-05-06 18:06 | 39.68905 | 3.05897 | 10329 ft | 298 kts | 60° |
| 2026-05-06 18:07 | 39.69915 | 3.08278 | 10693 ft | 308 kts | 60° |
| 2026-05-06 18:07 | 39.70987 | 3.10806 | 10837 ft | 330 kts | 60° |
| 2026-05-06 18:07 | 39.72128 | 3.13497 | 10931 ft | 351 kts | 60° |
| 2026-05-06 18:07 | 39.73342 | 3.16360 | 10971 ft | 372 kts | 60° |
| 2026-05-06 18:08 | 39.74609 | 3.19356 | 11360 ft | 380 kts | 60° |
| 2026-05-06 18:08 | 39.75879 | 3.22363 | 12008 ft | 381 kts | 60° |
| 2026-05-06 18:08 | 39.77175 | 3.25404 | 12423 ft | 388 kts | 59° |
| 2026-05-06 18:08 | 39.78793 | 3.28226 | 12971 ft | 390 kts | 49° |
| 2026-05-06 18:09 | 39.80599 | 3.30884 | 13429 ft | 395 kts | 46° |
| 2026-05-06 18:09 | 39.82445 | 3.33563 | 13898 ft | 399 kts | 47° |
| 2026-05-06 18:09 | 39.84265 | 3.36311 | 14336 ft | 403 kts | 48° |
| 2026-05-06 18:09 | 39.86088 | 3.39098 | 14768 ft | 406 kts | 48° |
| 2026-05-06 18:10 | 39.87946 | 3.41888 | 15190 ft | 409 kts | 47° |
| 2026-05-06 18:10 | 39.89824 | 3.44686 | 15632 ft | 412 kts | 47° |
| 2026-05-06 18:10 | 39.91706 | 3.47522 | 16060 ft | 415 kts | 48° |
| 2026-05-06 18:10 | 39.93595 | 3.50385 | 16462 ft | 418 kts | 48° |
| 2026-05-06 18:11 | 39.95503 | 3.53266 | 16858 ft | 421 kts | 47° |
| 2026-05-06 18:11 | 39.97430 | 3.56166 | 17262 ft | 424 kts | 47° |
| 2026-05-06 18:11 | 39.99363 | 3.59087 | 17631 ft | 428 kts | 47° |
| 2026-05-06 18:11 | 40.01309 | 3.62039 | 18028 ft | 430 kts | 47° |
| 2026-05-06 18:12 | 40.03242 | 3.64967 | 18364 ft | 433 kts | 47° |
| 2026-05-06 18:12 | 40.05214 | 3.67955 | 18678 ft | 436 kts | 47° |
| 2026-05-06 18:12 | 40.07198 | 3.70964 | 18985 ft | 439 kts | 47° |
| 2026-05-06 18:12 | 40.09191 | 3.73993 | 19296 ft | 441 kts | 47° |
| 2026-05-06 18:13 | 40.11197 | 3.77046 | 19592 ft | 444 kts | 47° |
| 2026-05-06 18:13 | 40.13214 | 3.80114 | 19874 ft | 447 kts | 47° |
| 2026-05-06 18:13 | 40.15241 | 3.83203 | 20169 ft | 449 kts | 48° |
| 2026-05-06 18:13 | 40.17278 | 3.86310 | 20463 ft | 451 kts | 48° |
| 2026-05-06 18:14 | 40.19324 | 3.89434 | 20740 ft | 454 kts | 48° |
| 2026-05-06 18:14 | 40.21379 | 3.92575 | 21026 ft | 456 kts | 48° |
| 2026-05-06 18:14 | 40.23446 | 3.95736 | 21285 ft | 458 kts | 48° |
| 2026-05-06 18:14 | 40.25522 | 3.98916 | 21538 ft | 461 kts | 48° |
| 2026-05-06 18:15 | 40.27606 | 4.02112 | 21809 ft | 462 kts | 48° |
| 2026-05-06 18:15 | 40.29700 | 4.05326 | 22057 ft | 465 kts | 48° |
| 2026-05-06 18:15 | 40.31804 | 4.08556 | 22301 ft | 467 kts | 48° |
| 2026-05-06 18:15 | 40.33915 | 4.11803 | 22558 ft | 469 kts | 48° |
| 2026-05-06 18:16 | 40.36035 | 4.15068 | 22769 ft | 472 kts | 48° |
| 2026-05-06 18:16 | 40.38168 | 4.18354 | 23018 ft | 473 kts | 48° |
| 2026-05-06 18:16 | 40.40303 | 4.21649 | 23239 ft | 476 kts | 48° |
| 2026-05-06 18:16 | 40.42452 | 4.24968 | 23455 ft | 478 kts | 48° |
| 2026-05-06 18:17 | 40.44604 | 4.28296 | 23654 ft | 480 kts | 48° |
| 2026-05-06 18:17 | 40.46768 | 4.31644 | 23833 ft | 482 kts | 48° |
| 2026-05-06 18:17 | 40.49007 | 4.34921 | 24013 ft | 482 kts | 40° |
| 2026-05-06 18:17 | 40.51737 | 4.37395 | 24217 ft | 476 kts | 22° |
| 2026-05-06 18:18 | 40.54790 | 4.39044 | 24361 ft | 475 kts | 17° |
| 2026-05-06 18:18 | 40.57901 | 4.40526 | 24537 ft | 476 kts | 15° |
| 2026-05-06 18:18 | 40.61023 | 4.41994 | 24713 ft | 477 kts | 16° |
| 2026-05-06 18:18 | 40.64142 | 4.43524 | 24870 ft | 480 kts | 17° |
| 2026-05-06 18:19 | 40.67266 | 4.45083 | 25039 ft | 481 kts | 16° |
| 2026-05-06 18:19 | 40.70365 | 4.46597 | 25193 ft | 482 kts | 16° |
| 2026-05-06 18:19 | 40.73519 | 4.48120 | 25364 ft | 483 kts | 16° |
| 2026-05-06 18:19 | 40.76679 | 4.49664 | 25509 ft | 485 kts | 16° |
| 2026-05-06 18:20 | 40.79842 | 4.51227 | 25661 ft | 486 kts | 16° |
| 2026-05-06 18:20 | 40.83017 | 4.52791 | 25816 ft | 488 kts | 16° |
| 2026-05-06 18:20 | 40.86203 | 4.54349 | 25964 ft | 489 kts | 16° |
| 2026-05-06 18:20 | 40.89398 | 4.55915 | 26112 ft | 490 kts | 16° |
| 2026-05-06 18:21 | 40.92596 | 4.57494 | 26249 ft | 492 kts | 16° |
| 2026-05-06 18:21 | 40.95808 | 4.59080 | 26388 ft | 493 kts | 16° |
| 2026-05-06 18:21 | 40.99029 | 4.60668 | 26516 ft | 495 kts | 16° |
| 2026-05-06 18:21 | 41.02259 | 4.62260 | 26654 ft | 496 kts | 16° |
| 2026-05-06 18:22 | 41.05494 | 4.63860 | 26778 ft | 497 kts | 16° |
| 2026-05-06 18:22 | 41.08739 | 4.65468 | 26893 ft | 499 kts | 16° |
| 2026-05-06 18:22 | 41.11994 | 4.67081 | 27035 ft | 500 kts | 16° |
| 2026-05-06 18:22 | 41.15253 | 4.68696 | 27159 ft | 501 kts | 15° |
| 2026-05-06 18:23 | 41.18521 | 4.70318 | 27266 ft | 502 kts | 16° |
| 2026-05-06 18:23 | 41.21800 | 4.71949 | 27382 ft | 504 kts | 15° |
| 2026-05-06 18:23 | 41.25084 | 4.73583 | 27501 ft | 505 kts | 15° |
| 2026-05-06 18:23 | 41.28377 | 4.75223 | 27611 ft | 506 kts | 15° |
| 2026-05-06 18:24 | 41.31674 | 4.76866 | 27744 ft | 507 kts | 15° |
| 2026-05-06 18:24 | 41.34976 | 4.78515 | 27909 ft | 506 kts | 15° |
| 2026-05-06 18:24 | 41.38274 | 4.80164 | 28074 ft | 506 kts | 15° |
| 2026-05-06 18:24 | 41.41572 | 4.81813 | 28224 ft | 507 kts | 15° |
| 2026-05-06 18:25 | 41.44875 | 4.83467 | 28369 ft | 507 kts | 15° |
| 2026-05-06 18:25 | 41.48174 | 4.85121 | 28521 ft | 507 kts | 15° |
| 2026-05-06 18:25 | 41.51476 | 4.86778 | 28666 ft | 507 kts | 15° |
| 2026-05-06 18:25 | 41.54781 | 4.88439 | 28816 ft | 507 kts | 15° |
| 2026-05-06 18:26 | 41.58084 | 4.90100 | 28962 ft | 508 kts | 15° |
| 2026-05-06 18:26 | 41.61342 | 4.91741 | 29115 ft | 508 kts | 15° |
| 2026-05-06 18:26 | 41.64648 | 4.93408 | 29263 ft | 508 kts | 15° |
| 2026-05-06 18:26 | 41.67954 | 4.95076 | 29408 ft | 508 kts | 15° |
| 2026-05-06 18:27 | 41.71261 | 4.96746 | 29556 ft | 508 kts | 15° |
| 2026-05-06 18:27 | 41.74568 | 4.98418 | 29701 ft | 508 kts | 15° |
| 2026-05-06 18:27 | 41.77878 | 5.00095 | 29831 ft | 509 kts | 15° |
| 2026-05-06 18:27 | 41.81188 | 5.01773 | 29971 ft | 509 kts | 15° |
| 2026-05-06 18:28 | 41.84499 | 5.03453 | 30108 ft | 509 kts | 15° |
| 2026-05-06 18:28 | 41.87807 | 5.05134 | 30243 ft | 508 kts | 15° |
| 2026-05-06 18:28 | 41.91112 | 5.06814 | 30372 ft | 508 kts | 15° |
| 2026-05-06 18:28 | 41.94417 | 5.08497 | 30500 ft | 508 kts | 15° |
| 2026-05-06 18:29 | 41.97716 | 5.10178 | 30625 ft | 508 kts | 15° |
| 2026-05-06 18:29 | 42.01026 | 5.11867 | 30752 ft | 508 kts | 15° |
| 2026-05-06 18:29 | 42.04325 | 5.13553 | 30898 ft | 507 kts | 15° |
| 2026-05-06 18:29 | 42.07620 | 5.15238 | 31041 ft | 506 kts | 15° |
| 2026-05-06 18:30 | 42.10914 | 5.16924 | 31169 ft | 506 kts | 15° |
| 2026-05-06 18:30 | 42.14202 | 5.18609 | 31302 ft | 506 kts | 15° |
| 2026-05-06 18:30 | 42.17488 | 5.20295 | 31435 ft | 505 kts | 16° |
| 2026-05-06 18:30 | 42.20774 | 5.21984 | 31566 ft | 505 kts | 16° |
| 2026-05-06 18:31 | 42.24055 | 5.23671 | 31702 ft | 505 kts | 16° |
| 2026-05-06 18:31 | 42.27334 | 5.25358 | 31813 ft | 504 kts | 16° |
| 2026-05-06 18:31 | 42.33906 | 5.28746 | 31900 ft | 508 kts | 16° |
| 2026-05-06 18:32 | 42.40532 | 5.32172 | 31962 ft | 511 kts | 16° |
| 2026-05-06 18:32 | 42.47196 | 5.35624 | 31953 ft | 512 kts | 16° |
| 2026-05-06 18:33 | 42.53834 | 5.39071 | 31952 ft | 511 kts | 16° |
| 2026-05-06 18:33 | 42.60429 | 5.42503 | 31954 ft | 510 kts | 16° |
| 2026-05-06 18:34 | 42.67055 | 5.45959 | 31947 ft | 510 kts | 16° |
| 2026-05-06 18:34 | 42.73673 | 5.49418 | 31949 ft | 510 kts | 16° |
| 2026-05-06 18:35 | 42.80292 | 5.52887 | 31945 ft | 510 kts | 16° |
| 2026-05-06 18:35 | 42.86910 | 5.56362 | 31946 ft | 510 kts | 16° |
| 2026-05-06 18:36 | 42.93525 | 5.59845 | 31944 ft | 509 kts | 16° |
| 2026-05-06 18:36 | 43.00137 | 5.63332 | 31948 ft | 510 kts | 17° |
| 2026-05-06 18:37 | 43.05635 | 5.66240 | 31941 ft | 509 kts | 17° |
| 2026-05-06 18:37 | 43.13356 | 5.70332 | 31938 ft | 509 kts | 17° |
| 2026-05-06 18:38 | 43.19910 | 5.73814 | 31942 ft | 509 kts | 17° |
| 2026-05-06 18:38 | 43.26507 | 5.77326 | 31937 ft | 508 kts | 17° |
| 2026-05-06 18:39 | 43.33100 | 5.80847 | 31938 ft | 508 kts | 17° |
| 2026-05-06 18:40 | 43.42977 | 5.86133 | 31928 ft | 508 kts | 17° |
| 2026-05-06 18:40 | 43.49572 | 5.89673 | 31913 ft | 509 kts | 17° |
| 2026-05-06 18:41 | 43.56164 | 5.93222 | 31918 ft | 509 kts | 17° |
| 2026-05-06 18:41 | 43.62764 | 5.96781 | 31918 ft | 509 kts | 17° |
| 2026-05-06 18:42 | 43.69360 | 6.00349 | 31912 ft | 509 kts | 17° |
| 2026-05-06 18:42 | 43.75959 | 6.03924 | 31919 ft | 510 kts | 17° |
| 2026-05-06 18:43 | 43.82561 | 6.07511 | 31916 ft | 510 kts | 17° |
| 2026-05-06 18:43 | 43.89170 | 6.11111 | 31916 ft | 510 kts | 17° |
| 2026-05-06 18:44 | 43.95772 | 6.14713 | 31922 ft | 510 kts | 17° |
| 2026-05-06 18:44 | 44.02382 | 6.18331 | 31931 ft | 511 kts | 17° |
| 2026-05-06 18:45 | 44.08998 | 6.21959 | 31930 ft | 511 kts | 17° |
| 2026-05-06 18:45 | 44.15623 | 6.25602 | 31934 ft | 512 kts | 18° |
| 2026-05-06 18:46 | 44.22200 | 6.29225 | 31939 ft | 512 kts | 18° |
| 2026-05-06 18:46 | 44.28864 | 6.32911 | 31942 ft | 511 kts | 18° |
| 2026-05-06 18:47 | 44.35437 | 6.36548 | 31945 ft | 511 kts | 18° |
| 2026-05-06 18:47 | 44.42056 | 6.40224 | 31947 ft | 512 kts | 18° |
| 2026-05-06 18:48 | 44.48680 | 6.43909 | 31947 ft | 511 kts | 18° |
| 2026-05-06 18:48 | 44.55279 | 6.47594 | 31950 ft | 511 kts | 18° |
| 2026-05-06 18:49 | 44.61893 | 6.51288 | 31941 ft | 512 kts | 18° |
| 2026-05-06 18:49 | 44.68510 | 6.55003 | 31933 ft | 511 kts | 18° |
| 2026-05-06 18:50 | 44.75119 | 6.58711 | 31934 ft | 513 kts | 18° |
| 2026-05-06 18:50 | 44.81744 | 6.62450 | 31732 ft | 512 kts | 18° |
| 2026-05-06 18:50 | 44.85056 | 6.64319 | 31854 ft | 513 kts | 18° |
| 2026-05-06 18:51 | 44.88377 | 6.66191 | 31926 ft | 515 kts | 18° |
| 2026-05-06 18:51 | 44.95069 | 6.69983 | 31920 ft | 520 kts | 18° |
| 2026-05-06 18:52 | 45.01775 | 6.73790 | 31910 ft | 518 kts | 18° |
| 2026-05-06 18:52 | 45.07322 | 6.76946 | 31915 ft | 518 kts | 18° |
| 2026-05-06 18:53 | 45.15103 | 6.81384 | 31916 ft | 519 kts | 18° |
| 2026-05-06 18:53 | 45.20717 | 6.84597 | 31912 ft | 519 kts | 18° |
| 2026-05-06 18:54 | 45.27367 | 6.88404 | 31911 ft | 518 kts | 18° |
| 2026-05-06 18:54 | 45.34078 | 6.92264 | 31912 ft | 516 kts | 19° |
| 2026-05-06 18:55 | 45.40691 | 6.96074 | 31920 ft | 517 kts | 18° |
| 2026-05-06 18:55 | 45.47349 | 6.99917 | 31919 ft | 516 kts | 18° |
| 2026-05-06 18:56 | 45.53991 | 7.03767 | 31915 ft | 515 kts | 18° |
| 2026-05-06 18:56 | 45.60621 | 7.07611 | 31907 ft | 514 kts | 19° |
| 2026-05-06 18:57 | 45.67248 | 7.11475 | 31903 ft | 514 kts | 19° |
| 2026-05-06 18:57 | 45.73861 | 7.15326 | 31899 ft | 512 kts | 19° |
| 2026-05-06 18:58 | 45.80455 | 7.19192 | 31898 ft | 512 kts | 19° |
| 2026-05-06 18:58 | 45.87047 | 7.23049 | 31897 ft | 510 kts | 19° |
| 2026-05-06 18:59 | 45.93611 | 7.26919 | 31900 ft | 509 kts | 19° |
| 2026-05-06 18:59 | 46.00128 | 7.30751 | 31934 ft | 509 kts | 19° |
| 2026-05-06 19:00 | 46.06695 | 7.34640 | 31941 ft | 511 kts | 19° |
| 2026-05-06 19:00 | 46.13252 | 7.38526 | 31927 ft | 505 kts | 19° |
| 2026-05-06 19:01 | 46.19757 | 7.42381 | 31946 ft | 508 kts | 20° |
| 2026-05-06 19:01 | 46.26294 | 7.46285 | 31942 ft | 507 kts | 20° |
| 2026-05-06 19:02 | 46.32793 | 7.50161 | 31942 ft | 505 kts | 20° |
| 2026-05-06 19:02 | 46.39291 | 7.54053 | 31947 ft | 503 kts | 20° |
| 2026-05-06 19:03 | 46.45757 | 7.57933 | 31947 ft | 502 kts | 20° |
| 2026-05-06 19:03 | 46.52204 | 7.61815 | 31951 ft | 501 kts | 20° |
| 2026-05-06 19:04 | 46.58644 | 7.65699 | 31942 ft | 501 kts | 20° |
| 2026-05-06 19:04 | 46.65069 | 7.69587 | 31936 ft | 499 kts | 20° |
| 2026-05-06 19:05 | 46.71479 | 7.73474 | 31930 ft | 499 kts | 20° |
| 2026-05-06 19:05 | 46.77881 | 7.77367 | 31924 ft | 498 kts | 20° |
| 2026-05-06 19:06 | 46.84263 | 7.81257 | 31921 ft | 496 kts | 21° |
| 2026-05-06 19:06 | 46.90580 | 7.85118 | 31922 ft | 495 kts | 21° |
| 2026-05-06 19:07 | 46.96937 | 7.89014 | 31934 ft | 495 kts | 21° |
| 2026-05-06 19:07 | 47.03282 | 7.92912 | 31935 ft | 494 kts | 21° |
| 2026-05-06 19:08 | 47.09613 | 7.96809 | 31925 ft | 493 kts | 21° |
| 2026-05-06 19:08 | 47.15728 | 8.01287 | 31938 ft | 493 kts | 39° |
| 2026-05-06 19:08 | 47.18117 | 8.04899 | 31926 ft | 493 kts | 55° |
| 2026-05-06 19:09 | 47.20003 | 8.09099 | 31914 ft | 492 kts | 59° |
| 2026-05-06 19:09 | 47.23571 | 8.17679 | 31910 ft | 491 kts | 59° |
| 2026-05-06 19:10 | 47.27224 | 8.26200 | 31908 ft | 492 kts | 59° |
| 2026-05-06 19:10 | 47.31567 | 8.33927 | 32105 ft | 499 kts | 36° |
| 2026-05-06 19:10 | 47.34592 | 8.36475 | 32004 ft | 503 kts | 26° |
| 2026-05-06 19:11 | 47.37712 | 8.38679 | 31923 ft | 504 kts | 24° |
| 2026-05-06 19:11 | 47.44067 | 8.43062 | 31934 ft | 505 kts | 25° |
| 2026-05-06 19:12 | 47.50401 | 8.47631 | 31935 ft | 506 kts | 25° |
| 2026-05-06 19:12 | 47.56779 | 8.52113 | 31932 ft | 506 kts | 25° |
| 2026-05-06 19:13 | 47.63111 | 8.56663 | 31930 ft | 506 kts | 25° |
| 2026-05-06 19:13 | 47.69448 | 8.61173 | 31922 ft | 504 kts | 25° |
| 2026-05-06 19:14 | 47.75770 | 8.65716 | 31917 ft | 504 kts | 25° |
| 2026-05-06 19:14 | 47.82029 | 8.70209 | 31909 ft | 502 kts | 25° |
| 2026-05-06 19:15 | 47.88309 | 8.74739 | 31905 ft | 501 kts | 25° |
| 2026-05-06 19:15 | 47.94594 | 8.79279 | 31900 ft | 501 kts | 25° |
| 2026-05-06 19:16 | 48.00867 | 8.83827 | 31895 ft | 500 kts | 25° |
| 2026-05-06 19:16 | 48.07130 | 8.88377 | 31894 ft | 500 kts | 26° |
| 2026-05-06 19:17 | 48.13379 | 8.92931 | 31888 ft | 499 kts | 26° |
| 2026-05-06 19:17 | 48.16524 | 8.94963 | 31889 ft | 497 kts | 15° |
| 2026-05-06 19:17 | 48.19911 | 8.95870 | 31903 ft | 495 kts | 5° |
| 2026-05-06 19:18 | 48.26767 | 8.96844 | 31892 ft | 493 kts | 4° |
| 2026-05-06 19:18 | 48.33609 | 8.97904 | 31885 ft | 493 kts | 5° |
| 2026-05-06 19:19 | 48.40383 | 8.98927 | 31877 ft | 491 kts | 4° |
| 2026-05-06 19:19 | 48.47189 | 8.99965 | 31867 ft | 491 kts | 5° |
| 2026-05-06 19:20 | 48.53992 | 9.01006 | 31863 ft | 490 kts | 4° |
| 2026-05-06 19:20 | 48.60791 | 9.02043 | 31859 ft | 490 kts | 5° |
| 2026-05-06 19:21 | 48.67541 | 9.03531 | 31859 ft | 490 kts | 8° |
| 2026-05-06 19:21 | 48.74250 | 9.05048 | 31856 ft | 490 kts | 8° |
| 2026-05-06 19:22 | 48.80964 | 9.06707 | 31859 ft | 489 kts | 8° |
| 2026-05-06 19:22 | 48.87706 | 9.08282 | 31856 ft | 488 kts | 7° |
| 2026-05-06 19:23 | 48.94428 | 9.09289 | 31853 ft | 487 kts | 5° |
| 2026-05-06 19:23 | 49.01167 | 9.10286 | 31845 ft | 486 kts | 5° |
| 2026-05-06 19:24 | 49.07918 | 9.11221 | 31844 ft | 486 kts | 5° |
| 2026-05-06 19:24 | 49.11266 | 9.11713 | 31814 ft | 474 kts | 5° |
| 2026-05-06 19:24 | 49.14518 | 9.12183 | 31126 ft | 468 kts | 5° |
| 2026-05-06 19:24 | 49.17759 | 9.12637 | 30407 ft | 464 kts | 6° |
| 2026-05-06 19:25 | 49.20944 | 9.13088 | 29865 ft | 456 kts | 6° |
| 2026-05-06 19:25 | 49.24084 | 9.13545 | 29114 ft | 451 kts | 6° |
| 2026-05-06 19:25 | 49.27189 | 9.13996 | 28417 ft | 445 kts | 6° |
| 2026-05-06 19:25 | 49.30177 | 9.14763 | 27739 ft | 438 kts | 14° |
| 2026-05-06 19:26 | 49.33128 | 9.15828 | 27038 ft | 433 kts | 15° |
| 2026-05-06 19:26 | 49.36047 | 9.16896 | 26368 ft | 428 kts | 14° |
| 2026-05-06 19:26 | 49.38938 | 9.17911 | 25694 ft | 423 kts | 13° |
| 2026-05-06 19:26 | 49.41800 | 9.18904 | 25046 ft | 419 kts | 14° |
| 2026-05-06 19:27 | 49.44628 | 9.19911 | 24412 ft | 415 kts | 14° |
| 2026-05-06 19:27 | 49.47430 | 9.20922 | 23784 ft | 411 kts | 14° |
| 2026-05-06 19:27 | 49.50203 | 9.21906 | 23135 ft | 407 kts | 13° |
| 2026-05-06 19:27 | 49.52952 | 9.22878 | 22442 ft | 403 kts | 13° |
| 2026-05-06 19:28 | 49.55525 | 9.23798 | 21817 ft | 398 kts | 13° |
| 2026-05-06 19:28 | 49.58224 | 9.24765 | 21165 ft | 394 kts | 13° |
| 2026-05-06 19:28 | 49.60875 | 9.25713 | 20528 ft | 389 kts | 13° |
| 2026-05-06 19:28 | 49.63509 | 9.26655 | 19903 ft | 385 kts | 13° |
| 2026-05-06 19:29 | 49.66107 | 9.27586 | 19297 ft | 381 kts | 13° |
| 2026-05-06 19:29 | 49.68686 | 9.28511 | 18700 ft | 378 kts | 13° |
| 2026-05-06 19:29 | 49.71231 | 9.29425 | 18109 ft | 374 kts | 13° |
| 2026-05-06 19:29 | 49.73751 | 9.30333 | 17482 ft | 369 kts | 13° |
| 2026-05-06 19:30 | 49.76215 | 9.31219 | 16843 ft | 365 kts | 12° |
| 2026-05-06 19:30 | 49.78681 | 9.32107 | 16215 ft | 362 kts | 12° |
| 2026-05-06 19:30 | 49.81134 | 9.32843 | 15609 ft | 357 kts | 2° |
| 2026-05-06 19:30 | 49.83568 | 9.32377 | 15025 ft | 350 kts | 341° |
| 2026-05-06 19:31 | 49.85699 | 9.30651 | 14421 ft | 344 kts | 320° |
| 2026-05-06 19:31 | 49.87288 | 9.27940 | 13848 ft | 338 kts | 300° |
| 2026-05-06 19:31 | 49.88856 | 9.21195 | 12603 ft | 330 kts | 284° |
| 2026-05-06 19:32 | 49.89485 | 9.17799 | 12007 ft | 326 kts | 285° |
| 2026-05-06 19:32 | 49.90125 | 9.14428 | 11419 ft | 323 kts | 285° |
| 2026-05-06 19:32 | 49.90763 | 9.11105 | 10842 ft | 320 kts | 285° |
| 2026-05-06 19:32 | 49.91388 | 9.07810 | 10287 ft | 316 kts | 285° |
| 2026-05-06 19:33 | 49.91990 | 9.04629 | 10088 ft | 301 kts | 285° |
| 2026-05-06 19:33 | 49.92562 | 9.01613 | 10069 ft | 282 kts | 284° |
| 2026-05-06 19:33 | 49.93106 | 8.98728 | 9634 ft | 280 kts | 284° |
| 2026-05-06 19:33 | 49.93682 | 8.95841 | 9143 ft | 279 kts | 291° |
| 2026-05-06 19:34 | 49.94784 | 8.93399 | 8708 ft | 279 kts | 315° |
| 2026-05-06 19:34 | 49.96449 | 8.91821 | 8251 ft | 283 kts | 338° |
| 2026-05-06 19:34 | 49.98400 | 8.91383 | 7795 ft | 286 kts | 358° |
| 2026-05-06 19:34 | 50.00388 | 8.91545 | 7355 ft | 286 kts | 5° |
| 2026-05-06 19:35 | 50.02244 | 8.92614 | 6927 ft | 288 kts | 33° |
| 2026-05-06 19:35 | 50.03611 | 8.94815 | 6491 ft | 288 kts | 59° |
| 2026-05-06 19:35 | 50.04394 | 8.97669 | 6223 ft | 281 kts | 70° |
| 2026-05-06 19:35 | 50.05017 | 9.00455 | 6211 ft | 263 kts | 70° |
| 2026-05-06 19:36 | 50.05621 | 9.03066 | 6074 ft | 252 kts | 70° |
| 2026-05-06 19:36 | 50.06223 | 9.05615 | 5680 ft | 254 kts | 70° |
| 2026-05-06 19:36 | 50.06824 | 9.08184 | 5384 ft | 252 kts | 70° |
| 2026-05-06 19:36 | 50.07686 | 9.10517 | 5083 ft | 248 kts | 40° |
| 2026-05-06 19:37 | 50.09196 | 9.11607 | 4772 ft | 239 kts | 1° |
| 2026-05-06 19:37 | 50.10833 | 9.11350 | 4405 ft | 236 kts | 345° |
| 2026-05-06 19:37 | 50.12427 | 9.10786 | 4106 ft | 233 kts | 344° |
| 2026-05-06 19:37 | 50.13467 | 9.10391 | 3963 ft | 228 kts | 340° |
| 2026-05-06 19:38 | 50.14945 | 9.08314 | 4004 ft | 227 kts | 288° |
| 2026-05-06 19:38 | 50.15020 | 9.05945 | 3994 ft | 221 kts | 262° |
| 2026-05-06 19:38 | 50.14705 | 9.03588 | 3990 ft | 219 kts | 253° |
| 2026-05-06 19:38 | 50.14181 | 9.01322 | 3999 ft | 223 kts | 250° |
| 2026-05-06 19:39 | 50.13657 | 8.99119 | 4003 ft | 219 kts | 250° |
| 2026-05-06 19:39 | 50.13120 | 8.96859 | 4004 ft | 219 kts | 250° |
| 2026-05-06 19:39 | 50.12588 | 8.94628 | 4005 ft | 223 kts | 250° |
| 2026-05-06 19:39 | 50.12054 | 8.92393 | 4007 ft | 218 kts | 250° |
| 2026-05-06 19:40 | 50.11520 | 8.90157 | 4011 ft | 221 kts | 250° |
| 2026-05-06 19:40 | 50.11004 | 8.87999 | 4007 ft | 202 kts | 250° |
| 2026-05-06 19:40 | 50.10534 | 8.86032 | 4012 ft | 184 kts | 250° |
| 2026-05-06 19:40 | 50.10246 | 8.84805 | 3890 ft | 180 kts | 250° |
| 2026-05-06 19:41 | 50.09799 | 8.82933 | 3662 ft | 192 kts | 251° |
| 2026-05-06 19:41 | 50.09185 | 8.80356 | 3341 ft | 199 kts | 251° |
| 2026-05-06 19:41 | 50.08858 | 8.78985 | 3158 ft | 197 kts | 251° |
| 2026-05-06 19:41 | 50.08388 | 8.77026 | 2893 ft | 199 kts | 251° |
| 2026-05-06 19:42 | 50.07904 | 8.75014 | 2639 ft | 193 kts | 251° |
| 2026-05-06 19:42 | 50.07438 | 8.73065 | 2382 ft | 193 kts | 252° |
| 2026-05-06 19:42 | 50.06989 | 8.71144 | 2167 ft | 185 kts | 253° |
| 2026-05-06 19:42 | 50.06554 | 8.69322 | 1909 ft | 176 kts | 251° |
| 2026-05-06 19:43 | 50.06116 | 8.67609 | 1584 ft | 163 kts | 252° |
| 2026-05-06 19:43 | 50.05763 | 8.66018 | 1338 ft | 147 kts | 252° |
| 2026-05-06 19:43 | 50.05414 | 8.64611 | 1107 ft | 133 kts | 253° |
| 2026-05-06 19:43 | 50.05103 | 8.63289 | 888 ft | 129 kts | 253° |
| 2026-05-06 19:44 | 50.04785 | 8.61936 | 748 ft | 137 kts | 252° |
| 2026-05-06 19:44 | 50.04448 | 8.60518 | 631 ft | 142 kts | 252° |
| 2026-05-06 19:44 | 50.04094 | 8.59028 | 549 ft | 156 kts | 251° |
| 2026-05-06 19:44 | 50.03737 | 8.57519 | 359 ft | 138 kts | 251° |
| 2026-05-06 19:45 | 50.03453 | 8.56337 | 354 ft | 95 kts | 249° |
| 2026-05-06 19:45 | 50.03259 | 8.55522 | 353 ft | 65 kts | 250° |
| 2026-05-06 19:45 | 50.03176 | 8.55037 | 344 ft | 37 kts | 272° |
| 2026-05-06 19:45 | 50.03205 | 8.54723 | 334 ft | 6 kts | 279° |
| 2026-05-06 19:46 | 50.03205 | 8.54721 | 335 ft | 0 kts | 279° |
| 2026-05-06 19:47 | 50.03210 | 8.54676 | 337 ft | 8 kts | 279° |
| 2026-05-06 19:47 | 50.03222 | 8.54571 | 335 ft | 9 kts | 279° |
| 2026-05-06 19:47 | 50.03252 | 8.54518 | 337 ft | 6 kts | 325° |
| 2026-05-06 19:48 | 50.03270 | 8.54506 | 336 ft | 4 kts | 340° |
| 2026-05-06 19:48 | 50.03317 | 8.54477 | 336 ft | 8 kts | 340° |
| 2026-05-06 19:48 | 50.03340 | 8.54464 | 339 ft | 0 kts | 340° |
| 2026-05-06 19:49 | 50.03360 | 8.54453 | 336 ft | 7 kts | 340° |
| 2026-05-06 19:49 | 50.03435 | 8.54410 | 351 ft | 15 kts | 339° |
| 2026-05-06 19:50 | 50.03564 | 8.54334 | 345 ft | 24 kts | 340° |
| 2026-05-06 19:50 | 50.03662 | 8.54340 | 342 ft | 3 kts | 55° |
| 2026-05-06 19:50 | 50.03680 | 8.54409 | 350 ft | 11 kts | 70° |
| 2026-05-06 19:50 | 50.03713 | 8.54549 | 348 ft | 17 kts | 69° |
| 2026-05-06 19:51 | 50.03762 | 8.54746 | 349 ft | 22 kts | 69° |
| 2026-05-06 19:51 | 50.03820 | 8.54984 | 352 ft | 9 kts | 69° |
| 2026-05-06 19:51 | 50.03821 | 8.54987 | 352 ft | 0 kts | 69° |
| 2026-05-06 19:51 | 50.03834 | 8.55018 | 352 ft | 8 kts | 44° |
| 2026-05-06 19:52 | 50.03879 | 8.55021 | 353 ft | 8 kts | 343° |
| 2026-05-06 19:52 | 50.03939 | 8.54987 | 356 ft | 7 kts | 339° |
| 2026-05-06 19:52 | 50.03969 | 8.54971 | 359 ft | 3 kts | 341° |
| 2026-05-06 19:52 | 50.04004 | 8.54975 | 353 ft | 8 kts | 25° |
| 2026-05-06 19:53 | 50.04027 | 8.55052 | 357 ft | 14 kts | 69° |
| 2026-05-06 19:53 | 50.04075 | 8.55257 | 358 ft | 26 kts | 69° |
| 2026-05-06 19:53 | 50.04138 | 8.55521 | 352 ft | 23 kts | 70° |
| 2026-05-06 19:53 | 50.04188 | 8.55721 | 358 ft | 17 kts | 68° |
| 2026-05-06 19:54 | 50.04218 | 8.55856 | 356 ft | 10 kts | 69° |
| 2026-05-06 19:54 | 50.04230 | 8.55904 | 357 ft | 0 kts | 69° |
| 2026-05-06 19:54 | 50.04232 | 8.55911 | 356 ft | 3 kts | 69° |
| 2026-05-06 19:54 | 50.04250 | 8.55983 | 358 ft | 12 kts | 69° |
| 2026-05-06 19:55 | 50.04276 | 8.56090 | 358 ft | 11 kts | 70° |
| 2026-05-06 19:55 | 50.04306 | 8.56223 | 356 ft | 18 kts | 69° |
| 2026-05-06 19:55 | 50.04358 | 8.56438 | 360 ft | 23 kts | 69° |
| 2026-05-06 19:55 | 50.04416 | 8.56679 | 361 ft | 25 kts | 68° |
| 2026-05-06 19:56 | 50.04518 | 8.56875 | 359 ft | 25 kts | 14° |
| 2026-05-06 19:56 | 50.04696 | 8.56963 | 356 ft | 27 kts | 24° |
| 2026-05-06 19:56 | 50.04828 | 8.57060 | 358 ft | 17 kts | 25° |
| 2026-05-06 19:56 | 50.04878 | 8.57056 | 359 ft | 4 kts | 307° |
| 2026-05-06 19:57 | 50.04886 | 8.57025 | 356 ft | 2 kts | 292° |
| 2026-05-06 19:57 | 50.04892 | 8.57002 | 358 ft | 2 kts | 293° |
| 2026-05-06 19:57 | 50.04895 | 8.56994 | 364 ft | 0 kts | 294° |